Time;durP1;ratioP1;P1;durP2;ratioP2;P2;SDS_P1;SDS_P2;PMS_P1;PMS_P2;Temp;Humidity;BMP_temperature;BMP_pressure;BME280_temperature;BME280_humidity;BME280_pressure;Samples;Min_cycle;Max_cycle;Signal;HPM_P1;HPM_P2
2023/09/16 00:00:20;;;;;;;32.97;3.67;;;;;;;22.76;57.76;99732.19;7308327;19;129607;-38
2023/09/16 00:02:48;;;;;;;47.73;4.57;;;;;;;22.74;57.68;99732.31;7307858;19;129018;-38
2023/09/16 00:05:13;;;;;;;66.43;4.85;;;;;;;22.76;57.79;99734.78;7308109;19;131707;-38
2023/09/16 00:07:38;;;;;;;130.67;8.03;;;;;;;22.76;57.84;99729.56;7309502;19;129303;-38
2023/09/16 00:10:04;;;;;;;45.63;4.60;;;;;;;22.77;57.91;99736.47;7306209;19;129681;-38
2023/09/16 00:12:30;;;;;;;35.67;3.77;;;;;;;22.74;57.19;99732.31;7308912;19;130778;-38
2023/09/16 00:14:55;;;;;;;53.50;4.40;;;;;;;22.75;57.70;99727.91;7308475;19;129064;-37
2023/09/16 00:17:21;;;;;;;87.03;6.10;;;;;;;22.75;57.15;99725.28;7309569;19;128812;-38
2023/09/16 00:19:48;;;;;;;72.43;5.00;;;;;;;22.74;57.53;99731.53;7306570;19;129211;-37
2023/09/16 00:22:13;;;;;;;27.50;3.45;;;;;;;22.75;57.75;99727.91;7316899;19;130173;-38
2023/09/16 00:24:40;;;;;;;84.93;5.90;;;;;;;22.73;57.21;99727.22;7314992;19;130375;-37
2023/09/16 00:27:07;;;;;;;;;;;;;;;22.79;58.83;99735.34;7318521;19;128948;-38
2023/09/16 00:29:33;;;;;;;35.75;3.63;;;;;;;22.75;57.59;99733.16;7315778;19;130648;-38
2023/09/16 00:32:01;;;;;;;37.55;3.90;;;;;;;22.74;58.03;99721.03;7312803;19;130806;-37
2023/09/16 00:34:26;;;;;;;96.30;6.13;;;;;;;22.67;57.00;99714.72;7314639;19;130724;-38
2023/09/16 00:36:52;;;;;;;68.50;5.30;;;;;;;22.72;57.58;99720.34;7317541;19;129023;-37
2023/09/16 00:39:17;;;;;;;49.70;4.23;;;;;;;22.74;57.73;99715.78;7314494;19;129094;-37
2023/09/16 00:41:42;;;;;;;86.68;6.25;;;;;;;22.73;57.89;99708.88;7315234;19;129501;-37
2023/09/16 00:44:08;;;;;;;77.30;5.10;;;;;;;22.75;58.05;99712.19;7314753;19;129102;-37
2023/09/16 00:46:33;;;;;;;48.72;4.45;;;;;;;22.73;58.23;99698.41;7316580;19;128951;-37
2023/09/16 00:48:59;;;;;;;34.08;3.63;;;;;;;22.74;57.68;99705.31;7314822;19;129352;-37
2023/09/16 00:51:27;;;;;;;77.40;5.95;;;;;;;22.75;57.26;99696.47;7314620;19;129017;-37
2023/09/16 00:53:53;;;;;;;116.18;7.03;;;;;;;22.60;57.27;99682.19;7313413;19;129148;-37
2023/09/16 00:56:18;;;;;;;38.53;3.53;;;;;;;22.73;57.56;99704.47;7316841;19;129097;-37
2023/09/16 00:58:45;;;;;;;65.47;5.07;;;;;;;22.72;57.09;99702.00;7312846;19;129400;-37
2023/09/16 01:01:10;;;;;;;48.03;4.25;;;;;;;22.75;57.21;99696.47;7312978;19;129078;-36
2023/09/16 01:03:36;;;;;;;83.85;5.70;;;;;;;22.74;56.95;99700.88;7315520;19;129026;-38
2023/09/16 01:06:04;;;;;;;16.03;2.87;;;;;;;22.75;57.50;99701.69;7314235;19;129199;-37
2023/09/16 01:08:30;;;;;;;46.95;4.05;;;;;;;22.61;56.84;99678.59;7313308;19;130732;-37
2023/09/16 01:10:56;;;;;;;50.50;4.50;;;;;;;22.74;57.60;99700.06;7315335;19;129874;-38
2023/09/16 01:13:21;;;;;;;77.53;5.07;;;;;;;22.61;57.55;99679.41;7314768;19;129284;-37
2023/09/16 01:15:58;;;;;;;47.93;4.20;;;;;;;22.75;58.45;99704.31;7314466;19;128820;-37
2023/09/16 01:18:35;;;;;;;31.15;3.17;;;;;;;22.73;58.48;99699.22;7313706;19;130013;-37
2023/09/16 01:21:04;;;;;;;9.60;2.30;;;;;;;22.73;58.28;99701.84;7312356;19;130676;-37
2023/09/16 01:23:29;;;;;;;42.88;3.58;;;;;;;22.74;57.74;99700.06;7314491;19;130575;-37
2023/09/16 01:25:55;;;;;;;108.07;6.53;;;;;;;22.74;57.40;99700.06;7313897;19;129126;-38
2023/09/16 01:28:22;;;;;;;43.47;3.80;;;;;;;22.72;57.64;99707.25;7312363;19;129525;-36
2023/09/16 01:30:50;;;;;;;59.45;4.68;;;;;;;22.71;57.16;99697.75;7311003;19;130807;-37
2023/09/16 01:33:32;;;;;;;29.50;3.20;;;;;;;22.73;58.19;99699.22;7315015;19;130426;-37
2023/09/16 01:36:05;;;;;;;94.93;6.10;;;;;;;22.75;58.84;99697.28;7313225;19;128960;-37
2023/09/16 01:38:32;;;;;;;104.45;6.32;;;;;;;22.74;57.68;99694.81;7312307;19;129182;-37
2023/09/16 01:40:59;;;;;;;60.88;4.85;;;;;;;22.61;57.23;99671.53;7312125;19;130129;-37
2023/09/16 01:43:25;;;;;;;18.48;2.92;;;;;;;22.76;56.30;99687.63;7314012;19;130475;-37
2023/09/16 01:45:52;;;;;;;76.30;5.50;;;;;;;22.76;57.44;99687.63;7312702;19;130056;-37
2023/09/16 01:48:17;;;;;;;;;;;;;;;22.79;58.34;99692.59;7313802;19;128951;-37
2023/09/16 01:50:44;;;;;;;71.75;5.47;;;;;;;22.72;57.69;99687.09;7310156;19;129454;-37
2023/09/16 01:53:09;;;;;;;57.70;4.85;;;;;;;22.68;57.22;99674.41;7312546;19;130179;-37
2023/09/16 01:55:35;;;;;;;30.23;3.53;;;;;;;22.70;56.39;99682.97;7314350;19;129784;-37
2023/09/16 01:58:00;;;;;;;138.03;8.67;;;;;;;22.72;57.30;99687.09;7312722;19;129299;-37
2023/09/16 02:00:26;;;;;;;36.83;3.97;;;;;;;22.73;57.72;99691.38;7311717;19;129095;-37
2023/09/16 02:02:51;;;;;;;73.43;5.43;;;;;;;22.73;57.66;99682.66;7311725;19;130160;-37
2023/09/16 02:05:17;;;;;;;31.73;3.85;;;;;;;22.73;57.05;99680.03;7313603;19;130201;-37
2023/09/16 02:07:42;;;;;;;84.10;6.57;;;;;;;22.74;57.17;99673.84;7313352;19;129030;-38
2023/09/16 02:10:09;;;;;;;32.60;3.57;;;;;;;22.72;57.09;99673.16;7308151;19;130185;-37
2023/09/16 02:12:35;;;;;;;43.85;4.45;;;;;;;22.72;57.32;99678.41;7312841;19;130535;-37
2023/09/16 02:15:01;;;;;;;68.07;5.13;;;;;;;22.58;57.23;99647.41;7312502;19;129623;-36
2023/09/16 02:17:27;;;;;;;55.50;4.43;;;;;;;22.72;57.70;99676.63;7314007;19;129576;-37
2023/09/16 02:19:52;;;;;;;85.87;6.40;;;;;;;22.73;57.77;99672.19;7307744;19;130108;-37
2023/09/16 02:22:17;;;;;;;37.73;3.90;;;;;;;22.71;57.60;99663.66;7313795;19;131077;-38
2023/09/16 02:24:43;;;;;;;96.40;6.40;;;;;;;22.71;57.12;99664.47;7310488;19;129453;-38
2023/09/16 02:27:08;;;;;;;42.47;4.17;;;;;;;22.71;56.78;99661.03;7315542;19;128878;-37
2023/09/16 02:29:34;;;;;;;32.43;3.40;;;;;;;22.70;57.89;99662.00;7311321;19;129092;-38
2023/09/16 02:31:59;;;;;;;54.38;4.68;;;;;;;22.71;57.21;99658.44;7313123;19;129217;-37
2023/09/16 02:34:25;;;;;;;84.90;5.75;;;;;;;22.72;56.74;99654.81;7312503;19;130445;-35
2023/09/16 02:36:50;;;;;;;33.97;4.07;;;;;;;22.72;56.67;99652.19;7313013;19;129260;-38
2023/09/16 02:39:15;;;;;;;35.33;3.92;;;;;;;22.59;57.76;99628.13;7311142;19;130092;-37
2023/09/16 02:41:41;;;;;;;32.70;3.73;;;;;;;22.69;57.82;99645.44;7310298;19;131615;-37
2023/09/16 02:44:07;;;;;;;82.63;5.83;;;;;;;22.68;57.27;99649.03;7309203;19;129168;-38
2023/09/16 02:46:32;;;;;;;34.63;4.15;;;;;;;22.68;57.67;99642.97;7313478;19;129668;-38
2023/09/16 02:48:58;;;;;;;66.20;5.27;;;;;;;22.57;57.72;99630.91;7309957;19;129539;-38
2023/09/16 02:51:23;;;;;;;73.07;5.70;;;;;;;22.67;57.55;99643.94;7312095;19;130382;-36
2023/09/16 02:53:49;;;;;;;68.03;5.07;;;;;;;22.66;57.39;99644.94;7312682;19;129243;-36
2023/09/16 02:56:14;;;;;;;44.30;4.13;;;;;;;22.67;57.49;99646.56;7312835;19;129150;-38
2023/09/16 02:58:39;;;;;;;48.72;4.43;;;;;;;22.67;57.45;99649.19;7310130;19;130116;-37
2023/09/16 03:01:11;;;;;;;49.33;4.53;;;;;;;22.67;57.95;99641.31;7310087;19;129886;-37
2023/09/16 03:03:37;;;;;;;105.60;6.70;;;;;;;22.67;57.34;99643.94;7310987;19;129333;-38
2023/09/16 03:06:03;;;;;;;52.50;4.72;;;;;;;22.66;57.37;99640.50;7313191;19;129839;-37
2023/09/16 03:08:28;;;;;;;26.30;3.40;;;;;;;22.67;57.17;99636.09;7310762;19;129397;-38
2023/09/16 03:10:59;;;;;;;79.33;6.13;;;;;;;22.67;58.47;99636.09;7310803;19;130391;-38
2023/09/16 03:13:24;;;;;;;110.45;7.15;;;;;;;22.67;56.84;99628.22;7310492;19;129037;-38
2023/09/16 03:16:13;;;;;;;40.73;4.40;;;;;;;22.64;58.04;99625.91;7312855;19;129011;-38
2023/09/16 03:18:38;;;;;;;84.30;6.25;;;;;;;22.65;57.24;99631.00;7310347;19;130107;-38
2023/09/16 03:21:03;;;;;;;69.70;5.77;;;;;;;22.68;57.22;99627.25;7307605;19;130439;-38
2023/09/16 03:23:29;;;;;;;90.78;6.55;;;;;;;22.56;57.20;99607.47;7311081;19;130229;-38
2023/09/16 03:25:54;;;;;;;96.72;6.68;;;;;;;22.66;57.02;99618.72;7311434;19;129586;-36
2023/09/16 03:28:19;;;;;;;69.07;5.63;;;;;;;22.66;57.06;99623.97;7309405;19;129353;-37
2023/09/16 03:30:45;;;;;;;54.60;4.70;;;;;;;;;;7306311;19;130360;-37
2023/09/16 03:33:10;;;;;;;74.10;5.83;;;;;;;;;;7308305;19;129043;-37
2023/09/16 03:35:36;;;;;;;57.83;4.87;;;;;;;22.64;57.39;99623.28;7311711;19;129076;-37
2023/09/16 03:38:02;;;;;;;142.67;9.40;;;;;;;22.64;57.57;99618.03;7310144;19;130315;-39
2023/09/16 03:40:28;;;;;;;35.03;3.70;;;;;;;22.63;57.14;99613.75;7308094;19;129928;-38
2023/09/16 03:42:55;;;;;;;154.10;9.53;;;;;;;22.63;57.43;99613.75;7309052;19;129238;-37
2023/09/16 03:45:20;;;;;;;61.22;4.78;;;;;;;22.63;57.66;99613.75;7310187;19;129505;-37
2023/09/16 03:47:45;;;;;;;46.03;4.10;;;;;;;22.63;57.45;99611.13;7310676;19;130006;-37
2023/09/16 03:50:11;;;;;;;36.03;3.83;;;;;;;22.65;57.48;99612.66;7305633;19;129159;-38
2023/09/16 03:52:36;;;;;;;67.15;4.93;;;;;;;22.62;57.68;99601.63;7311636;19;128978;-37
2023/09/16 03:55:02;;;;;;;69.72;5.20;;;;;;;22.65;57.50;99606.56;7308240;19;128825;-38
2023/09/16 03:57:28;;;;;;;48.80;4.45;;;;;;;22.65;56.56;99612.66;7309625;19;130739;-37
2023/09/16 03:59:53;;;;;;;64.57;5.17;;;;;;;22.63;57.66;99608.50;7303530;19;130504;-37
2023/09/16 04:02:19;;;;;;;86.63;6.05;;;;;;;22.63;57.23;99611.13;7310472;19;129006;-38
2023/09/16 04:04:44;;;;;;;46.28;4.20;;;;;;;22.65;56.99;99606.56;7311669;19;129779;-37
2023/09/16 04:07:09;;;;;;;39.43;3.70;;;;;;;;;;7309061;19;130032;-38
2023/09/16 04:09:35;;;;;;;39.67;3.87;;;;;;;22.63;57.04;99604.09;7306222;19;130522;-37
2023/09/16 04:12:01;;;;;;;93.60;6.05;;;;;;;22.63;57.41;99605.88;7310782;19;129169;-37
2023/09/16 04:14:27;;;;;;;74.77;5.27;;;;;;;22.65;56.72;99601.34;7310806;19;129028;-36
2023/09/16 04:16:52;;;;;;;104.07;6.75;;;;;;;22.63;57.49;99603.25;7308456;19;130920;-37
2023/09/16 04:19:17;;;;;;;52.67;4.27;;;;;;;22.63;57.53;99605.88;7307003;19;130376;-38
2023/09/16 04:21:43;;;;;;;76.40;5.23;;;;;;;22.63;57.12;99603.25;7309304;19;128835;-37
2023/09/16 04:24:09;;;;;;;38.17;3.77;;;;;;;22.62;57.31;99604.25;7311354;19;129018;-37
2023/09/16 04:26:34;;;;;;;54.03;4.15;;;;;;;22.64;57.77;99612.78;7310010;19;131399;-38
2023/09/16 04:28:59;;;;;;;120.93;7.73;;;;;;;22.65;57.12;99612.66;7306157;19;129531;-38
2023/09/16 04:31:25;;;;;;;44.80;4.03;;;;;;;22.55;57.74;99608.41;7310340;19;129309;-38
2023/09/16 04:33:50;;;;;;;34.23;3.60;;;;;;;22.65;57.64;99620.50;7310193;19;130009;-38
2023/09/16 04:36:15;;;;;;;36.40;3.30;;;;;;;22.56;56.83;99615.31;7309601;19;130379;-37
2023/09/16 04:38:41;;;;;;;100.97;5.97;;;;;;;22.65;56.57;99632.78;7305722;19;129716;-38
2023/09/16 04:41:06;;;;;;;86.60;6.10;;;;;;;22.65;57.22;99623.13;7303205;19;130860;-38
2023/09/16 04:43:31;;;;;;;87.00;6.17;;;;;;;22.62;56.85;99618.19;7308100;19;129274;-38
2023/09/16 04:45:57;;;;;;;53.80;4.38;;;;;;;22.54;56.96;99604.16;7308466;19;130143;-38
2023/09/16 04:48:23;;;;;;;83.27;5.30;;;;;;;22.60;57.35;99619.28;7306139;19;130528;-38
2023/09/16 04:50:48;;;;;;;63.97;4.40;;;;;;;22.62;56.92;99612.09;7305040;19;129387;-39
2023/09/16 04:53:14;;;;;;;44.70;3.50;;;;;;;22.64;56.73;99610.19;7307360;19;129933;-37
2023/09/16 04:55:42;;;;;;;52.20;4.40;;;;;;;22.60;57.22;99608.81;7308010;19;130124;-38
2023/09/16 04:58:08;;;;;;;166.90;9.52;;;;;;;22.61;57.92;99615.72;7305410;19;129344;-37
2023/09/16 05:00:33;;;;;;;40.37;3.90;;;;;;;22.60;57.32;99620.13;7305855;19;128915;-37
2023/09/16 05:03:03;;;;;;;115.00;7.43;;;;;;;22.60;57.99;99614.03;7304372;19;129372;-38
2023/09/16 05:05:28;;;;;;;98.18;6.57;;;;;;;22.60;57.08;99621.91;7303114;19;130315;-37
2023/09/16 05:07:53;;;;;;;121.60;7.20;;;;;;;22.50;57.21;99602.75;7310302;19;130418;-37
2023/09/16 05:10:19;;;;;;;62.00;4.60;;;;;;;22.61;57.05;99615.72;7311877;19;130133;-39
2023/09/16 05:12:44;;;;;;;63.13;4.63;;;;;;;22.62;57.50;99604.25;7313716;19;129105;-37
2023/09/16 05:15:12;;;;;;;54.23;3.97;;;;;;;;;;7311720;19;130040;-37
2023/09/16 05:17:40;;;;;;;105.00;6.38;;;;;;;22.63;57.82;99619.00;7314392;19;129298;-37
2023/09/16 05:20:06;;;;;;;70.70;4.95;;;;;;;22.63;57.17;99608.50;7309342;19;129290;-37
2023/09/16 05:22:31;;;;;;;74.47;4.65;;;;;;;22.63;57.68;99611.97;7311076;19;131235;-37
2023/09/16 05:24:57;;;;;;;119.47;7.37;;;;;;;22.61;57.65;99615.72;7308247;19;129970;-37
2023/09/16 05:27:22;;;;;;;89.22;5.65;;;;;;;22.65;56.90;99617.06;7311541;19;130208;-37
2023/09/16 05:29:52;;;;;;;62.80;4.80;;;;;;;22.61;57.47;99615.72;7311420;19;129225;-38
2023/09/16 05:32:18;;;;;;;64.25;4.60;;;;;;;22.62;57.79;99619.97;7313944;19;130681;-38
2023/09/16 05:34:44;;;;;;;65.07;4.72;;;;;;;22.63;57.25;99629.47;7312299;19;130416;-38
2023/09/16 05:37:09;;;;;;;129.03;7.23;;;;;;;22.62;56.76;99630.44;7311468;19;129734;-37
2023/09/16 05:39:35;;;;;;;33.10;3.30;;;;;;;22.63;57.45;99629.47;7312822;19;129202;-38
2023/09/16 05:42:00;;;;;;;38.57;3.63;;;;;;;22.65;56.26;99627.53;7311693;19;129020;-38
2023/09/16 05:44:26;;;;;;;59.65;4.32;;;;;;;22.62;57.65;99628.66;7314127;19;130719;-38
2023/09/16 05:46:51;;;;;;;75.40;5.20;;;;;;;22.62;57.09;99633.06;7314066;19;129149;-38
2023/09/16 05:49:16;;;;;;;62.40;4.60;;;;;;;22.65;57.54;99630.16;7310318;19;129126;-37
2023/09/16 05:51:42;;;;;;;43.47;3.63;;;;;;;22.62;56.49;99627.84;7314059;19;129174;-37
2023/09/16 05:54:08;;;;;;;168.30;9.70;;;;;;;22.61;56.23;99636.69;7305972;19;131071;-37
2023/09/16 05:56:37;;;;;;;60.83;4.50;;;;;;;22.63;56.92;99639.94;7313770;19;130407;-37
2023/09/16 05:59:03;;;;;;;84.13;5.47;;;;;;;22.62;56.71;99649.63;7309103;19;131113;-37
2023/09/16 06:01:28;;;;;;;9.67;2.20;;;;;;;22.60;56.57;99645.50;7300677;19;129944;-38
2023/09/16 06:03:54;;;;;;;73.30;4.93;;;;;;;22.61;56.38;99647.16;7311239;19;129892;-36
2023/09/16 06:06:19;;;;;;;48.07;3.83;;;;;;;22.61;56.31;99647.16;7313083;19;130423;-37
2023/09/16 06:08:45;;;;;;;91.10;6.20;;;;;;;22.61;56.23;99644.53;7308969;19;130988;-37
2023/09/16 06:11:10;;;;;;;143.70;8.77;;;;;;;22.54;57.01;99627.75;7308890;19;129137;-38
2023/09/16 06:13:35;;;;;;;74.70;5.03;;;;;;;22.62;56.24;99640.94;7310835;19;129214;-36
2023/09/16 06:16:01;;;;;;;66.68;4.80;;;;;;;22.62;56.76;99635.69;7313255;19;131380;-38
2023/09/16 06:18:26;;;;;;;58.22;4.65;;;;;;;22.61;55.93;99636.69;7306488;19;131540;-37
2023/09/16 06:20:51;;;;;;;121.20;7.63;;;;;;;22.60;56.34;99633.22;7304732;19;129277;-37
2023/09/16 06:23:17;;;;;;;89.17;5.80;;;;;;;22.62;56.38;99639.16;7306785;19;129493;-37
2023/09/16 06:25:43;;;;;;;77.90;5.40;;;;;;;22.63;55.53;99639.94;7309736;19;130675;-37
2023/09/16 06:28:08;;;;;;;97.32;6.50;;;;;;;22.63;56.99;99637.34;7311821;19;129835;-36
2023/09/16 06:30:33;;;;;;;33.77;3.90;;;;;;;22.54;57.35;99625.13;7308215;19;130179;-37
2023/09/16 06:32:59;;;;;;;132.80;7.90;;;;;;;22.61;56.32;99632.25;7310685;19;129296;-38
2023/09/16 06:35:24;;;;;;;81.27;5.77;;;;;;;22.57;55.70;99630.06;7310430;19;130371;-37
2023/09/16 06:37:50;;;;;;;50.70;4.20;;;;;;;22.61;56.05;99631.44;7309686;19;129928;-37
2023/09/16 06:40:17;;;;;;;69.63;4.90;;;;;;;22.59;56.46;99633.38;7308032;19;129297;-38
2023/09/16 06:42:42;;;;;;;71.20;5.22;;;;;;;22.58;56.85;99626.47;7312602;19;130185;-38
2023/09/16 06:45:08;;;;;;;65.50;4.77;;;;;;;22.60;56.04;99614.03;7311272;19;129912;-37
2023/09/16 06:47:34;;;;;;;42.20;3.63;;;;;;;22.59;57.15;99617.66;7311950;19;128915;-36
2023/09/16 06:50:01;;;;;;;76.87;5.53;;;;;;;22.61;56.82;99626.19;7307610;19;128868;-38
2023/09/16 06:52:27;;;;;;;74.88;4.82;;;;;;;22.58;57.34;99619.44;7312984;19;130333;-37
2023/09/16 06:54:53;;;;;;;47.13;3.95;;;;;;;22.58;57.50;99621.22;7311633;19;130477;-35
2023/09/16 06:57:18;;;;;;;28.77;3.28;;;;;;;22.47;56.81;99613.53;7309872;19;128985;-38
2023/09/16 06:59:48;;;;;;;61.20;4.30;;;;;;;22.56;57.69;99617.94;7310074;19;129519;-37
2023/09/16 07:02:14;;;;;;;55.03;4.30;;;;;;;22.58;56.03;99629.06;7308560;19;130046;-38
2023/09/16 07:04:43;;;;;;;40.63;3.90;;;;;;;22.56;56.46;99623.19;7311820;19;130973;-38
2023/09/16 07:07:09;;;;;;;72.78;5.35;;;;;;;22.56;56.13;99626.59;7309700;19;129470;-37
2023/09/16 07:09:35;;;;;;;66.05;4.55;;;;;;;22.57;57.29;99624.81;7307914;19;132977;-38
2023/09/16 07:12:00;;;;;;;76.07;5.27;;;;;;;22.57;57.19;99625.66;7312417;19;129691;-36
2023/09/16 07:14:26;;;;;;;67.93;5.17;;;;;;;22.55;56.77;99622.34;7310945;19;129898;-38
2023/09/16 07:16:51;;;;;;;32.33;3.13;;;;;;;22.57;56.81;99624.81;7307209;19;129500;-37
2023/09/16 07:19:16;;;;;;;125.63;7.73;;;;;;;22.58;56.84;99618.59;7305345;19;130461;-38
2023/09/16 07:21:42;;;;;;;100.47;6.30;;;;;;;22.50;57.24;99608.81;7306040;19;130068;-37
2023/09/16 07:24:07;;;;;;;70.53;4.67;;;;;;;22.56;57.31;99607.47;7310111;19;130163;-38
2023/09/16 07:26:33;;;;;;;19.27;2.83;;;;;;;22.53;57.14;99602.50;7311833;19;129108;-37
2023/09/16 07:28:58;;;;;;;101.03;6.03;;;;;;;22.55;57.67;99605.78;7305436;19;129627;-37
2023/09/16 07:31:23;;;;;;;51.47;3.97;;;;;;;22.57;57.42;99606.47;7310127;19;129686;-38
2023/09/16 07:33:49;;;;;;;43.90;3.47;;;;;;;22.57;57.00;99596.00;7310508;19;129747;-37
2023/09/16 07:36:15;;;;;;;81.40;5.93;;;;;;;22.57;57.54;99596.00;7310377;19;129459;-36
2023/09/16 07:38:40;;;;;;;107.00;6.37;;;;;;;22.55;56.48;99596.16;7308869;19;129581;-37
2023/09/16 07:41:05;;;;;;;95.47;6.13;;;;;;;22.49;56.70;99593.25;7309673;19;130052;-36
2023/09/16 07:43:31;;;;;;;52.72;4.15;;;;;;;22.56;56.88;99607.47;7309736;19;130715;-37
2023/09/16 07:45:58;;;;;;;34.90;3.23;;;;;;;22.48;56.35;99594.19;7311190;19;129403;-38
2023/09/16 07:48:23;;;;;;;67.82;4.47;;;;;;;22.58;56.07;99606.34;7309467;19;128966;-38
2023/09/16 07:50:49;;;;;;;61.93;4.37;;;;;;;22.58;57.08;99602.88;7306343;19;129334;-37
2023/09/16 07:53:14;;;;;;;94.80;6.00;;;;;;;22.59;55.75;99596.69;7307457;19;131163;-38
2023/09/16 07:55:40;;;;;;;59.10;3.97;;;;;;;22.55;56.30;99590.91;7309965;19;129381;-37
2023/09/16 07:58:05;;;;;;;99.53;6.33;;;;;;;22.58;56.25;99595.84;7308362;19;129006;-36
2023/09/16 08:00:31;;;;;;;42.72;3.78;;;;;;;22.46;56.77;99580.44;7307253;19;129016;-37
2023/09/16 08:02:56;;;;;;;78.93;5.32;;;;;;;22.59;56.43;99602.72;7308192;19;130402;-37
2023/09/16 08:05:21;;;;;;;62.80;4.55;;;;;;;22.58;57.35;99595.84;7307525;19;129140;-37
2023/09/16 08:07:47;;;;;;;92.97;5.77;;;;;;;22.58;56.56;99600.25;7307262;19;128943;-38
2023/09/16 08:10:12;;;;;;;58.43;4.30;;;;;;;22.59;56.69;99597.50;7305383;19;129467;-37
2023/09/16 08:12:37;;;;;;;37.73;3.27;;;;;;;22.61;56.81;99600.00;7308556;19;130466;-37
2023/09/16 08:15:06;;;;;;;121.43;6.97;;;;;;;22.60;57.00;99598.31;7307655;19;129192;-37
2023/09/16 08:17:32;;;;;;;71.75;4.68;;;;;;;22.58;56.01;99589.78;7308854;19;129179;-37
2023/09/16 08:19:57;;;;;;;30.77;3.10;;;;;;;22.61;56.50;99600.78;7306356;19;130753;-38
2023/09/16 08:22:23;;;;;;;71.83;4.83;;;;;;;22.61;56.65;99592.13;7305306;19;129233;-36
2023/09/16 08:24:49;;;;;;;68.07;4.77;;;;;;;22.60;56.32;99593.09;7309459;19;129219;-37
2023/09/16 08:27:15;;;;;;;76.13;5.05;;;;;;;22.61;56.02;99589.50;7308682;19;129010;-37
2023/09/16 08:29:40;;;;;;;35.03;3.07;;;;;;;22.50;56.59;99568.69;7306482;19;128986;-37
2023/09/16 08:32:05;;;;;;;34.53;3.30;;;;;;;22.61;56.99;99586.88;7308253;19;130346;-38
2023/09/16 08:34:30;;;;;;;100.93;6.43;;;;;;;22.61;56.98;99592.13;7308156;19;129516;-37
2023/09/16 08:36:56;;;;;;;45.20;3.45;;;;;;;22.60;56.41;99588.69;7309882;19;129204;-37
2023/09/16 08:39:21;;;;;;;68.87;5.13;;;;;;;22.51;56.20;99575.59;7303101;19;129489;-37
2023/09/16 08:41:52;;;;;;;51.07;3.70;;;;;;;22.61;56.72;99586.88;7311428;19;130404;-38
2023/09/16 08:44:22;;;;;;;99.20;5.85;;;;;;;22.59;57.25;99580.97;7315086;19;129974;-37
2023/09/16 08:46:53;;;;;;;8.52;1.88;;;;;;;22.60;56.78;99586.06;7316902;19;129044;-38
2023/09/16 08:49:22;;;;;;;86.93;5.45;;;;;;;22.61;57.64;99584.28;7311996;19;129792;-36
2023/09/16 08:51:50;;;;;;;47.53;3.83;;;;;;;22.61;55.75;99579.03;7315045;19;129305;-37
2023/09/16 08:54:19;;;;;;;84.93;5.38;;;;;;;22.62;56.90;99583.28;7316264;19;129609;-37
2023/09/16 08:56:45;;;;;;;72.63;4.80;;;;;;;22.61;56.76;99574.59;7316292;19;129228;-36
2023/09/16 08:59:11;;;;;;;95.83;6.17;;;;;;;22.63;56.89;99574.44;7313046;19;129430;-37
2023/09/16 09:01:37;;;;;;;86.63;5.57;;;;;;;22.62;56.37;99570.19;7304547;19;131603;-37
2023/09/16 09:04:03;;;;;;;86.47;5.85;;;;;;;22.60;56.68;99566.88;7314043;19;129084;-37
2023/09/16 09:06:30;;;;;;;69.97;4.73;;;;;;;22.62;57.75;99572.81;7315278;19;129425;-37
2023/09/16 09:08:55;;;;;;;60.40;4.63;;;;;;;22.62;56.40;99568.41;7313259;19;130447;-38
2023/09/16 09:11:21;;;;;;;67.80;4.80;;;;;;;22.60;57.09;99569.50;7312528;19;130518;-37
2023/09/16 09:13:48;;;;;;;66.32;4.43;;;;;;;22.62;56.10;99565.78;7312437;19;128896;-37
2023/09/16 09:16:18;;;;;;;70.20;4.93;;;;;;;22.63;57.55;99561.34;7313209;19;129494;-38
2023/09/16 09:18:46;;;;;;;64.90;4.72;;;;;;;22.62;57.18;99559.69;7313891;19;130576;-36
2023/09/16 09:21:13;;;;;;;75.93;5.10;;;;;;;22.63;56.54;99550.84;7312411;19;130567;-38
2023/09/16 09:23:38;;;;;;;107.43;6.13;;;;;;;22.62;56.40;99538.75;7306975;19;129348;-38
2023/09/16 09:26:04;;;;;;;100.27;5.83;;;;;;;22.65;56.63;99548.91;7309832;19;129498;-38
2023/09/16 09:28:32;;;;;;;97.15;6.18;;;;;;;22.62;57.49;99538.75;7310324;19;131148;-37
2023/09/16 09:30:58;;;;;;;64.85;4.82;;;;;;;22.57;56.60;99540.97;7305558;19;131296;-38
2023/09/16 09:33:26;;;;;;;99.47;6.30;;;;;;;22.59;56.82;99537.22;7311401;19;129152;-38
2023/09/16 09:36:15;;;;;;;86.70;5.60;;;;;;;22.58;57.66;99538.19;7308474;19;128949;-37
2023/09/16 09:38:45;;;;;;;125.45;7.55;;;;;;;22.59;56.73;99541.66;7310612;19;129735;-38
2023/09/16 09:41:11;;;;;;;59.45;4.25;;;;;;;22.59;56.85;99539.84;7310902;19;130567;-37
2023/09/16 09:43:37;;;;;;;57.83;4.03;;;;;;;22.62;55.79;99543.97;7312991;19;131582;-37
2023/09/16 09:46:02;;;;;;;72.00;5.77;;;;;;;22.57;54.78;99541.81;7313759;19;131137;-38
2023/09/16 09:48:30;;;;;;;129.68;7.57;;;;;;;22.62;55.06;99538.75;7312006;19;131177;-38
2023/09/16 09:50:55;;;;;;;67.53;4.80;;;;;;;22.56;55.04;99523.63;7311962;19;131156;-38
2023/09/16 09:53:24;;;;;;;93.50;5.93;;;;;;;22.65;55.71;99533.19;7312229;19;129177;-38
2023/09/16 09:55:50;;;;;;;59.28;4.15;;;;;;;22.61;55.51;99526.63;7311185;19;129429;-38
2023/09/16 09:58:18;;;;;;;166.67;10.37;;;;;;;22.64;56.75;99528.94;7309683;19;131125;-38
2023/09/16 10:00:48;;;;;;;52.65;4.00;;;;;;;22.70;55.30;99531.78;7312048;19;130241;-38
2023/09/16 10:03:14;;;;;;;80.47;5.78;;;;;;;22.69;54.66;99531.94;7311037;19;129653;-37
2023/09/16 10:05:40;;;;;;;60.08;4.45;;;;;;;22.61;55.10;99513.53;7312955;19;128832;-37
2023/09/16 10:08:06;;;;;;;166.70;9.50;;;;;;;22.71;55.26;99532.63;7311147;19;129542;-38
2023/09/16 10:10:31;;;;;;;52.93;4.30;;;;;;;22.73;54.80;99535.91;7310081;19;129181;-37
2023/09/16 10:12:58;;;;;;;48.87;4.33;;;;;;;22.69;54.37;99535.38;7312769;19;129978;-37
2023/09/16 10:15:25;;;;;;;65.93;5.05;;;;;;;22.59;54.77;99510.22;7311993;19;129026;-38
2023/09/16 10:17:50;;;;;;;119.55;7.18;;;;;;;22.60;53.81;99509.22;7311861;19;129039;-38
2023/09/16 10:20:16;;;;;;;95.30;6.53;;;;;;;22.69;55.01;99524.88;7308978;19;131364;-37
2023/09/16 10:22:43;;;;;;;64.93;5.40;;;;;;;22.69;54.27;99522.25;7310006;19;129054;-38
2023/09/16 10:25:11;;;;;;;59.53;4.53;;;;;;;22.71;55.05;99524.75;7312368;19;129283;-37
2023/09/16 10:27:57;;;;;;;76.03;5.30;;;;;;;22.70;56.18;99517.84;7313203;19;132302;-38
2023/09/16 10:30:23;;;;;;;124.85;7.93;;;;;;;22.58;54.74;99495.44;7309829;19;130468;-38
2023/09/16 10:32:48;;;;;;;83.87;6.13;;;;;;;22.71;54.79;99506.41;7310252;19;130230;-38
2023/09/16 10:35:14;;;;;;;66.00;5.10;;;;;;;22.77;54.67;99516.28;7309207;19;130593;-39
2023/09/16 10:37:41;;;;;;;60.27;4.57;;;;;;;22.77;54.42;99511.06;7311458;19;130122;-37
2023/09/16 10:40:08;;;;;;;77.28;5.35;;;;;;;22.76;54.47;99515.47;7309389;19;129133;-37
2023/09/16 10:42:36;;;;;;;99.85;6.68;;;;;;;22.75;54.19;99518.22;7308038;19;130641;-37
2023/09/16 10:45:03;;;;;;;55.45;4.55;;;;;;;22.70;55.02;99520.47;7311109;19;130385;-37
2023/09/16 10:47:29;;;;;;;59.85;4.93;;;;;;;22.73;55.24;99510.53;7310333;19;131699;-38
2023/09/16 10:49:54;;;;;;;93.07;6.13;;;;;;;22.72;55.18;99508.06;7309559;19;130315;-38
2023/09/16 10:52:29;;;;;;;87.73;5.97;;;;;;;22.76;55.31;99501.53;7311418;19;129109;-38
2023/09/16 10:55:03;;;;;;;48.60;4.07;;;;;;;22.77;55.68;99500.56;7311118;19;129707;-37
2023/09/16 10:57:39;;;;;;;82.13;6.35;;;;;;;22.70;54.86;99492.47;7310203;19;129317;-35
2023/09/16 11:00:10;;;;;;;54.28;4.75;;;;;;;22.83;55.04;99498.16;7307856;19;129767;-39
2023/09/16 11:03:00;;;;;;;121.13;6.95;;;;;;;22.83;55.67;99506.03;7305866;19;129290;-35
2023/09/16 11:05:26;;;;;;;116.05;7.20;;;;;;;22.79;55.33;99488.16;7308496;19;129247;-38
2023/09/16 11:07:55;;;;;;;84.43;5.70;;;;;;;22.85;55.25;99491.00;7310637;19;129487;-37
2023/09/16 11:10:22;;;;;;;62.22;4.95;;;;;;;22.88;54.92;99492.47;7308749;19;129595;-37
2023/09/16 11:12:49;;;;;;;78.93;5.53;;;;;;;22.87;54.98;99485.59;7308732;19;130279;-38
2023/09/16 11:15:15;;;;;;;82.00;5.68;;;;;;;22.81;55.41;99489.63;7309785;19;131868;-37